Aviation Digital Data Service (ADDS)

Output produced by METARs form (0133 UTC 23 December 2014)
found at http://aviationweather.gov/adds/metars/
 
KRDU 222333Z 2300/2324 04008KT 2SM -RADZ BR OVC004 
     TEMPO 2305/2309 3/4SM -DZ BR OVC002 
     FM231700 01006KT 4SM -RADZ BR OVC007